Time;durP1;ratioP1;P1;durP2;ratioP2;P2;SDS_P1;SDS_P2;PMS_P1;PMS_P2;Temp;Humidity;BMP_temperature;BMP_pressure;BME280_temperature;BME280_humidity;BME280_pressure;Samples;Min_cycle;Max_cycle;Signal;HPM_P1;HPM_P2
2021/12/25 05:02:28;;;;;;;14.00;6.50;;;7.40;99.70;;;;;;5051466;28;20236;-67
2021/12/25 05:04:59;;;;;;;14.10;6.57;;;7.50;99.70;;;;;;5051363;28;20259;-67
2021/12/25 05:07:26;;;;;;;13.20;6.10;;;7.50;99.70;;;;;;5051118;28;20455;-68
2021/12/25 05:09:53;;;;;;;13.20;6.30;;;7.40;99.70;;;;;;5050574;28;20467;-68
2021/12/25 05:12:20;;;;;;;14.03;7.57;;;7.40;99.70;;;;;;5051307;28;20456;-67
2021/12/25 05:14:47;;;;;;;14.87;7.17;;;7.30;99.70;;;;;;5051055;28;21042;-67
2021/12/25 05:17:13;;;;;;;14.70;6.67;;;7.30;99.70;;;;;;5051071;28;20802;-68
2021/12/25 05:19:42;;;;;;;18.07;7.07;;;7.30;99.70;;;;;;5035670;28;20496;-67
2021/12/25 05:22:10;;;;;;;15.17;7.07;;;7.40;99.70;;;;;;5039146;28;20463;-68
2021/12/25 05:24:37;;;;;;;16.97;7.87;;;7.30;99.70;;;;;;5042910;28;20475;-68
2021/12/25 05:27:05;;;;;;;15.67;6.97;;;7.30;99.70;;;;;;5051167;28;20725;-67
2021/12/25 05:29:34;;;;;;;14.70;8.17;;;7.30;99.70;;;;;;5050363;28;20845;-67
2021/12/25 05:32:01;;;;;;;15.63;7.70;;;7.30;99.70;;;;;;5051148;28;20534;-67
2021/12/25 05:34:28;;;;;;;14.50;7.23;;;7.30;99.70;;;;;;5050991;28;20456;-67
2021/12/25 05:36:57;;;;;;;13.97;7.30;;;7.30;99.70;;;;;;5050837;28;20991;-67
2021/12/25 05:39:24;;;;;;;13.23;7.10;;;7.30;99.70;;;;;;5049973;28;20479;-68
2021/12/25 05:41:50;;;;;;;16.70;7.57;;;7.30;99.70;;;;;;5051034;28;20513;-67
2021/12/25 05:44:17;;;;;;;15.63;7.50;;;7.30;99.70;;;;;;5050766;28;20549;-66
2021/12/25 05:46:44;;;;;;;17.37;7.67;;;7.30;99.70;;;;;;5050893;28;20454;-67
2021/12/25 05:49:11;;;;;;;14.53;7.50;;;7.40;99.70;;;;;;5050344;28;20476;-68
2021/12/25 05:51:39;;;;;;;15.40;7.40;;;7.40;99.70;;;;;;5054917;28;20882;-67
2021/12/25 05:54:07;;;;;;;15.73;7.70;;;7.40;99.70;;;;;;5054676;28;20458;-67
2021/12/25 05:56:34;;;;;;;16.43;8.40;;;7.40;99.70;;;;;;5054575;28;20963;-67
2021/12/25 05:59:01;;;;;;;15.03;7.63;;;7.40;99.70;;;;;;5054205;28;20483;-67
2021/12/25 06:01:28;;;;;;;14.53;7.50;;;7.40;99.70;;;;;;5054627;28;20444;-67
2021/12/25 06:03:56;;;;;;;16.43;8.00;;;7.40;99.70;;;;;;5054608;28;20477;-67
2021/12/25 06:06:23;;;;;;;17.70;8.27;;;7.40;99.70;;;;;;5054456;28;20447;-65
2021/12/25 06:08:49;;;;;;;20.20;9.23;;;7.40;99.70;;;;;;5054163;28;20455;-67
2021/12/25 06:11:18;;;;;;;18.90;9.20;;;7.40;99.70;;;;;;5054647;28;20439;-67
2021/12/25 06:13:56;;;;;;;20.93;9.20;;;7.40;99.70;;;;;;5054572;28;20443;-67
2021/12/25 06:16:23;;;;;;;22.03;9.00;;;7.40;99.70;;;;;;5054404;28;20443;-66
2021/12/25 06:18:49;;;;;;;17.33;8.17;;;7.30;99.70;;;;;;5053943;28;20890;-68
2021/12/25 06:21:16;;;;;;;17.77;8.37;;;7.40;99.70;;;;;;5054133;28;20451;-67
2021/12/25 06:23:44;;;;;;;19.93;9.17;;;7.30;99.70;;;;;;5053179;28;20471;-67
2021/12/25 06:26:10;;;;;;;19.57;9.93;;;7.30;99.70;;;;;;5033611;28;20456;-67
2021/12/25 06:28:38;;;;;;;17.80;8.77;;;7.30;99.70;;;;;;5033367;28;20468;-67
2021/12/25 06:31:05;;;;;;;21.57;9.13;;;7.30;99.70;;;;;;5033769;28;20448;-67
2021/12/25 06:33:32;;;;;;;20.07;9.90;;;7.30;99.70;;;;;;5034477;28;20447;-67
2021/12/25 06:35:58;;;;;;;18.70;8.70;;;7.20;99.70;;;;;;5034018;28;20866;-67
2021/12/25 06:38:25;;;;;;;19.27;9.23;;;7.20;99.70;;;;;;5033590;28;20452;-67
2021/12/25 06:40:52;;;;;;;24.27;9.33;;;7.30;99.70;;;;;;5033525;28;20488;-68
2021/12/25 06:43:18;;;;;;;19.73;9.37;;;7.30;99.70;;;;;;5034076;28;20448;-67
2021/12/25 06:45:47;;;;;;;20.00;9.37;;;7.30;99.70;;;;;;5032383;28;20965;-68
2021/12/25 06:48:13;;;;;;;20.47;9.40;;;7.20;99.70;;;;;;5032553;28;20452;-66
2021/12/25 06:50:40;;;;;;;21.50;8.90;;;7.20;99.70;;;;;;5033387;28;20456;-68
2021/12/25 06:53:07;;;;;;;19.80;9.00;;;7.20;99.70;;;;;;5033793;28;20880;-68
2021/12/25 06:55:33;;;;;;;20.70;9.30;;;7.20;99.70;;;;;;5033684;28;20463;-68
2021/12/25 06:58:00;;;;;;;18.37;8.87;;;7.20;99.70;;;;;;5033373;28;20452;-67
2021/12/25 07:00:28;;;;;;;21.67;9.50;;;7.20;99.70;;;;;;5033161;28;20488;-67
2021/12/25 07:02:57;;;;;;;19.77;9.17;;;7.20;99.70;;;;;;5032725;28;20952;-67
2021/12/25 07:05:24;;;;;;;20.47;9.90;;;7.20;99.70;;;;;;5033673;28;20452;-67
2021/12/25 07:07:51;;;;;;;19.07;9.13;;;7.20;99.70;;;;;;5033252;28;20444;-67
2021/12/25 07:10:19;;;;;;;22.40;9.60;;;7.20;99.70;;;;;;5033442;28;20460;-67
2021/12/25 07:12:47;;;;;;;19.77;9.00;;;7.20;99.70;;;;;;5033474;28;20448;-67
2021/12/25 07:15:15;;;;;;;21.47;8.67;;;7.20;99.70;;;;;;5033760;28;20452;-67
2021/12/25 07:17:42;;;;;;;18.00;8.80;;;7.20;99.70;;;;;;5033083;28;20452;-66
2021/12/25 07:20:11;;;;;;;22.10;9.30;;;7.30;99.70;;;;;;5032932;28;20484;-67
2021/12/25 07:22:38;;;;;;;19.47;8.40;;;7.40;99.70;;;;;;5033307;28;20449;-67
2021/12/25 07:25:07;;;;;;;20.23;9.97;;;7.40;99.70;;;;;;5033470;28;20945;-67
2021/12/25 07:27:33;;;;;;;23.67;11.13;;;7.40;99.70;;;;;;5033358;28;20444;-67
2021/12/25 07:30:02;;;;;;;27.57;12.23;;;7.30;99.70;;;;;;5032764;28;20472;-67
2021/12/25 07:32:29;;;;;;;28.17;12.13;;;7.40;99.70;;;;;;5033066;28;20926;-67
2021/12/25 07:34:56;;;;;;;29.20;11.77;;;7.60;99.70;;;;;;5033008;28;20451;-67
2021/12/25 07:37:24;;;;;;;28.13;12.67;;;7.60;99.70;;;;;;5032859;28;20456;-67
2021/12/25 07:39:50;;;;;;;22.47;10.77;;;7.60;99.70;;;;;;5031824;28;20562;-67
2021/12/25 07:42:18;;;;;;;24.47;10.53;;;7.70;99.70;;;;;;5032921;28;20448;-67
2021/12/25 07:44:45;;;;;;;17.97;8.53;;;7.70;99.70;;;;;;5032542;28;20449;-67
2021/12/25 07:47:14;;;;;;;21.13;9.47;;;7.70;99.70;;;;;;5032688;28;20456;-67
2021/12/25 07:49:41;;;;;;;22.63;10.03;;;7.80;99.70;;;;;;5032519;28;20546;-67
2021/12/25 07:52:07;;;;;;;18.30;8.17;;;7.80;99.70;;;;;;5032640;28;20451;-67
2021/12/25 07:54:36;;;;;;;26.73;10.77;;;7.80;99.70;;;;;;5052344;23;20487;-66
2021/12/25 07:57:02;;;;;;;20.67;9.10;;;7.80;99.70;;;;;;5050278;28;20466;-66
2021/12/25 07:59:29;;;;;;;20.17;8.87;;;7.80;99.70;;;;;;5051292;28;20479;-65
2021/12/25 08:01:56;;;;;;;20.37;8.60;;;7.90;99.70;;;;;;5052417;28;20440;-66
2021/12/25 08:04:23;;;;;;;19.60;9.30;;;7.90;99.70;;;;;;5045596;28;20495;-66
2021/12/25 08:06:50;;;;;;;32.63;12.63;;;7.90;99.70;;;;;;5051955;28;20448;-65
2021/12/25 08:09:27;;;;;;;32.97;11.97;;;7.90;99.70;;;;;;5051615;28;20444;-66
2021/12/25 08:11:56;;;;;;;17.63;7.70;;;7.90;99.70;;;;;;5048902;28;20447;-66
2021/12/25 08:14:25;;;;;;;18.80;8.60;;;8.00;99.70;;;;;;5050750;28;20471;-66
2021/12/25 08:16:52;;;;;;;20.33;8.77;;;7.90;99.70;;;;;;5051342;28;20456;-66
2021/12/25 08:19:19;;;;;;;18.50;8.90;;;8.00;99.70;;;;;;5051312;28;20530;-65
2021/12/25 08:21:46;;;;;;;18.70;8.13;;;8.00;99.70;;;;;;5051572;28;20444;-65
2021/12/25 08:24:13;;;;;;;17.10;8.60;;;8.00;99.70;;;;;;5051656;28;20471;-66
2021/12/25 08:26:39;;;;;;;20.87;9.37;;;8.00;99.70;;;;;;5051644;28;20444;-65
2021/12/25 08:29:07;;;;;;;16.33;8.17;;;8.00;99.70;;;;;;5051494;28;20467;-66
2021/12/25 08:31:34;;;;;;;17.07;7.83;;;8.00;99.70;;;;;;5051807;28;20451;-66
2021/12/25 08:34:01;;;;;;;17.60;8.20;;;8.10;99.70;;;;;;5051171;28;20447;-66
2021/12/25 08:36:28;;;;;;;16.13;7.80;;;8.10;99.70;;;;;;5051700;28;20448;-65
2021/12/25 08:38:57;;;;;;;16.40;7.83;;;8.10;99.70;;;;;;5049650;28;20459;-64
2021/12/25 08:41:28;;;;;;;14.57;6.60;;;8.20;99.70;;;;;;5050921;28;20471;-66
2021/12/25 08:43:59;;;;;;;15.03;6.80;;;8.10;99.70;;;;;;5050666;28;20452;-66
2021/12/25 08:46:43;;;;;;;13.60;6.53;;;8.20;99.70;;;;;;5051185;28;20456;-66
2021/12/25 08:49:14;;;;;;;14.73;6.73;;;8.20;99.70;;;;;;5050871;28;20454;-66
2021/12/25 08:51:41;;;;;;;18.67;8.87;;;8.20;99.70;;;;;;5051098;28;20456;-66
2021/12/25 08:54:08;;;;;;;18.27;9.37;;;8.30;99.70;;;;;;5050934;28;20447;-66
2021/12/25 08:56:34;;;;;;;22.70;11.17;;;8.20;99.70;;;;;;5050895;28;20810;-66
2021/12/25 08:59:01;;;;;;;27.10;13.07;;;8.30;99.70;;;;;;5051124;28;20489;-66
2021/12/25 09:01:29;;;;;;;25.40;12.03;;;8.30;99.70;;;;;;5050975;28;20475;-66
2021/12/25 09:03:56;;;;;;;25.83;12.47;;;8.20;99.70;;;;;;5051086;28;20444;-66
2021/12/25 09:06:23;;;;;;;21.50;10.60;;;8.20;99.70;;;;;;5050874;28;20452;-66
2021/12/25 09:08:50;;;;;;;24.93;11.60;;;8.20;99.70;;;;;;5050543;28;20906;-66
2021/12/25 09:11:20;;;;;;;24.20;10.70;;;8.20;99.70;;;;;;5043964;28;20441;-66
2021/12/25 09:13:47;;;;;;;23.60;11.57;;;8.10;99.70;;;;;;5041600;28;20483;-66
2021/12/25 09:16:14;;;;;;;22.57;11.20;;;8.10;99.70;;;;;;5040597;28;20482;-67
2021/12/25 09:18:42;;;;;;;19.60;9.43;;;8.10;99.70;;;;;;5041309;28;20447;-66
2021/12/25 09:21:09;;;;;;;18.40;8.50;;;8.20;99.70;;;;;;5039985;28;20480;-65
2021/12/25 09:23:36;;;;;;;19.50;7.90;;;8.20;99.70;;;;;;5039430;28;20440;-65
2021/12/25 09:26:03;;;;;;;18.00;7.87;;;8.20;99.70;;;;;;5041253;28;20889;-66
2021/12/25 09:28:30;;;;;;;17.60;8.80;;;8.30;99.70;;;;;;5039938;28;20439;-65
2021/12/25 09:30:56;;;;;;;16.30;7.60;;;8.30;99.70;;;;;;5041957;28;20498;-66
2021/12/25 09:33:27;;;;;;;16.67;7.17;;;8.20;99.70;;;;;;5041035;28;20505;-66
2021/12/25 09:35:55;;;;;;;17.90;8.63;;;8.30;99.70;;;;;;5045608;28;20521;-66
2021/12/25 09:38:22;;;;;;;15.70;7.20;;;8.20;99.70;;;;;;5049740;28;20497;-65
2021/12/25 09:40:49;;;;;;;18.27;8.17;;;8.30;99.70;;;;;;5049711;28;20507;-66
2021/12/25 09:43:18;;;;;;;22.50;10.00;;;8.30;99.70;;;;;;5050850;28;20451;-66
2021/12/25 09:45:45;;;;;;;23.80;11.57;;;8.30;99.70;;;;;;5046662;28;21068;-66
2021/12/25 09:48:12;;;;;;;30.00;14.40;;;8.30;99.70;;;;;;5030292;28;20445;-66
2021/12/25 09:50:38;;;;;;;22.10;10.97;;;8.30;99.70;;;;;;5042183;28;20451;-66
2021/12/25 09:53:08;;;;;;;23.93;9.97;;;8.30;99.70;;;;;;5050382;28;20444;-67
2021/12/25 09:55:35;;;;;;;20.57;8.80;;;8.30;99.70;;;;;;5050367;28;20482;-66
2021/12/25 09:58:02;;;;;;;24.90;12.03;;;8.30;99.70;;;;;;5049730;28;20455;-66
2021/12/25 10:00:29;;;;;;;23.37;10.30;;;8.40;99.70;;;;;;5042219;28;20538;-64
2021/12/25 10:02:57;;;;;;;24.23;10.33;;;8.50;99.70;;;;;;5046554;28;21104;-66
2021/12/25 10:05:26;;;;;;;20.40;10.00;;;8.50;99.70;;;;;;5042103;28;20525;-65
2021/12/25 10:08:06;;;;;;;25.87;10.67;;;8.50;99.70;;;;;;5049385;28;20820;-66
2021/12/25 10:10:41;;;;;;;25.10;10.73;;;8.50;99.70;;;;;;5049233;28;20501;-65
2021/12/25 10:13:22;;;;;;;25.90;11.70;;;8.40;99.70;;;;;;5048160;28;20465;-66
2021/12/25 10:15:49;;;;;;;25.90;11.80;;;8.50;99.70;;;;;;5040158;28;20467;-66
2021/12/25 10:18:24;;;;;;;25.20;11.70;;;8.50;99.70;;;;;;5042386;28;20461;-66
2021/12/25 10:20:51;;;;;;;21.23;9.60;;;8.40;99.70;;;;;;5043012;28;20475;-66
2021/12/25 10:23:25;;;;;;;18.77;9.50;;;8.40;99.70;;;;;;5049084;28;20451;-66
2021/12/25 10:25:55;;;;;;;18.50;9.50;;;8.40;99.70;;;;;;5046228;28;20534;-67
2021/12/25 10:28:27;;;;;;;23.23;9.87;;;8.50;99.70;;;;;;5049094;28;20452;-66
2021/12/25 10:30:58;;;;;;;20.07;10.00;;;8.50;99.70;;;;;;5046736;28;20456;-66
2021/12/25 10:33:28;;;;;;;21.00;9.90;;;8.60;99.70;;;;;;5050038;28;20454;-66
2021/12/25 10:35:57;;;;;;;18.83;9.33;;;8.70;99.70;;;;;;5050664;28;21244;-66
2021/12/25 10:38:24;;;;;;;25.83;9.60;;;8.60;99.70;;;;;;5049115;28;20450;-65
2021/12/25 10:41:10;;;;;;;17.27;9.03;;;8.70;99.70;;;;;;5044741;28;20508;-66
2021/12/25 10:43:41;;;;;;;20.23;9.50;;;8.70;99.70;;;;;;5046101;28;20455;-66
2021/12/25 10:46:08;;;;;;;24.60;9.47;;;8.70;99.70;;;;;;5047736;28;20543;-66
2021/12/25 10:48:35;;;;;;;22.73;9.07;;;8.80;99.70;;;;;;5043972;28;20459;-66
2021/12/25 10:51:03;;;;;;;18.53;9.17;;;8.90;99.70;;;;;;5045980;28;20451;-67
2021/12/25 10:53:34;;;;;;;18.57;8.67;;;8.90;99.70;;;;;;5046828;28;20454;-66
2021/12/25 10:56:11;;;;;;;16.67;8.00;;;9.00;99.70;;;;;;5045922;28;20515;-65
2021/12/25 10:58:39;;;;;;;17.60;8.50;;;9.10;99.70;;;;;;5051074;28;20447;-66
2021/12/25 11:01:08;;;;;;;16.07;7.50;;;9.20;99.70;;;;;;5034658;28;21015;-64
2021/12/25 11:03:38;;;;;;;13.93;6.73;;;9.20;99.70;;;;;;5037487;28;20472;-66
2021/12/25 11:06:07;;;;;;;17.10;8.23;;;9.20;99.70;;;;;;5049546;28;20852;-65
2021/12/25 11:08:35;;;;;;;17.53;8.73;;;9.40;99.70;;;;;;5052126;28;20474;-67
2021/12/25 11:11:05;;;;;;;18.60;8.33;;;9.50;99.70;;;;;;5043910;28;20463;-65
2021/12/25 11:13:37;;;;;;;16.80;7.70;;;9.50;99.70;;;;;;5049114;28;20456;-66
2021/12/25 11:16:22;;;;;;;16.00;7.97;;;9.60;99.70;;;;;;5050746;28;20475;-66
2021/12/25 11:18:53;;;;;;;17.90;7.10;;;9.70;99.70;;;;;;5047089;28;20483;-66
2021/12/25 11:21:20;;;;;;;14.00;6.80;;;9.80;99.70;;;;;;5049431;28;20475;-66
2021/12/25 11:23:47;;;;;;;12.73;6.47;;;9.80;99.70;;;;;;5049094;28;20477;-65
2021/12/25 11:26:14;;;;;;;14.97;6.77;;;9.80;99.70;;;;;;5048944;28;20651;-65
2021/12/25 11:28:43;;;;;;;15.03;6.57;;;9.90;99.70;;;;;;5050540;28;20498;-66
2021/12/25 11:31:09;;;;;;;10.77;5.73;;;9.90;99.70;;;;;;5049208;28;20468;-66
2021/12/25 11:33:36;;;;;;;9.93;4.57;;;9.90;99.70;;;;;;5052289;28;20459;-65
2021/12/25 11:36:04;;;;;;;14.70;5.10;;;9.80;99.70;;;;;;5047483;28;21037;-65
2021/12/25 11:38:30;;;;;;;10.17;4.53;;;9.80;99.70;;;;;;5051553;28;20456;-66
2021/12/25 11:41:06;;;;;;;10.00;4.80;;;9.70;99.70;;;;;;5051764;28;21093;-64
2021/12/25 11:43:39;;;;;;;10.13;4.57;;;9.60;99.70;;;;;;5052449;28;20443;-65
2021/12/25 11:46:08;;;;;;;8.07;4.47;;;9.50;99.70;;;;;;5052022;28;20504;-65
2021/12/25 11:48:36;;;;;;;8.03;4.00;;;9.50;99.70;;;;;;5050367;28;20539;-65
2021/12/25 11:51:05;;;;;;;8.00;4.47;;;9.40;99.70;;;;;;5047422;28;20472;-65
2021/12/25 11:53:44;;;;;;;8.43;4.67;;;9.40;99.70;;;;;;5049984;28;20982;-66
2021/12/25 11:58:52;;;;;;;9.67;4.43;;;9.40;99.70;;;;;;5050790;28;21009;-66
2021/12/25 12:01:24;;;;;;;8.70;4.20;;;9.30;99.70;;;;;;5049159;28;20884;-65
2021/12/25 12:03:54;;;;;;;8.93;4.60;;;9.40;99.70;;;;;;5032623;28;20456;-66
2021/12/25 12:06:45;;;;;;;9.30;4.50;;;9.40;99.70;;;;;;5046762;28;20470;-66
2021/12/25 12:09:13;;;;;;;8.00;4.20;;;9.50;99.70;;;;;;5049323;28;20479;-65
2021/12/25 12:11:41;;;;;;;8.60;4.30;;;9.40;99.70;;;;;;5051203;28;20527;-65
2021/12/25 12:14:18;;;;;;;7.40;3.70;;;9.40;99.70;;;;;;5049450;28;20455;-66
2021/12/25 12:16:49;;;;;;;7.30;4.23;;;9.40;99.70;;;;;;5051499;28;20459;-65
2021/12/25 12:19:41;;;;;;;11.53;4.40;;;9.50;99.70;;;;;;5048349;28;20436;-65
2021/12/25 12:22:49;;;;;;;8.20;3.53;;;9.50;99.70;;;;;;5051565;28;20487;-65
2021/12/25 12:25:24;;;;;;;6.53;3.43;;;9.40;99.70;;;;;;5048703;28;20474;-65
2021/12/25 12:27:53;;;;;;;10.63;3.87;;;9.40;99.70;;;;;;5045700;28;20458;-66
2021/12/25 12:30:51;;;;;;;8.87;3.80;;;9.40;99.70;;;;;;5050619;28;20530;-65
2021/12/25 12:33:36;;;;;;;7.13;3.90;;;9.40;99.70;;;;;;5041049;28;20455;-66
2021/12/25 12:36:05;;;;;;;7.63;3.93;;;9.40;99.70;;;;;;5050922;28;20494;-66
2021/12/25 12:38:39;;;;;;;7.97;4.10;;;9.40;99.70;;;;;;5049745;28;20452;-65
2021/12/25 12:41:25;;;;;;;9.13;4.30;;;9.40;99.70;;;;;;5044932;28;20472;-65
2021/12/25 12:44:08;;;;;;;7.20;3.80;;;9.30;99.70;;;;;;5043803;28;20444;-65
2021/12/25 12:47:11;;;;;;;8.87;3.90;;;9.30;99.70;;;;;;5050993;28;20455;-65
2021/12/25 12:49:59;;;;;;;8.10;4.40;;;9.30;99.70;;;;;;5043466;28;20456;-65
2021/12/25 12:52:30;;;;;;;9.87;4.10;;;9.20;99.70;;;;;;5040743;28;20839;-65
2021/12/25 12:54:59;;;;;;;8.57;4.00;;;9.20;99.70;;;;;;5050157;28;20471;-66
2021/12/25 12:57:29;;;;;;;7.13;4.13;;;9.20;99.70;;;;;;5050919;28;20447;-65
2021/12/25 12:59:58;;;;;;;8.87;4.10;;;9.20;99.70;;;;;;5045800;28;20463;-65
2021/12/25 13:02:27;;;;;;;10.90;6.00;;;9.10;99.70;;;;;;5050177;28;20480;-66
2021/12/25 13:04:59;;;;;;;12.40;6.90;;;9.10;99.70;;;;;;5047886;28;20476;-65
2021/12/25 13:07:30;;;;;;;15.97;8.80;;;9.20;99.70;;;;;;5050567;28;20847;-65
2021/12/25 13:10:05;;;;;;;12.43;6.67;;;9.10;99.70;;;;;;5049651;28;20451;-65
2021/12/25 13:12:39;;;;;;;14.27;7.67;;;9.10;99.70;;;;;;5049685;28;20450;-66
2021/12/25 13:15:11;;;;;;;15.53;8.20;;;9.10;99.70;;;;;;5047363;28;20536;-66
2021/12/25 13:17:38;;;;;;;14.57;6.80;;;9.00;99.70;;;;;;5044903;28;20806;-66
2021/12/25 13:20:07;;;;;;;13.70;7.50;;;9.00;99.70;;;;;;5047149;28;20833;-65
2021/12/25 13:22:34;;;;;;;12.97;7.10;;;9.00;99.70;;;;;;5049714;28;20483;-65
2021/12/25 13:25:07;;;;;;;13.87;7.00;;;9.00;99.70;;;;;;5050276;28;20468;-65
2021/12/25 13:27:34;;;;;;;13.53;6.90;;;9.00;99.70;;;;;;5037643;28;20447;-67
2021/12/25 13:30:10;;;;;;;21.83;11.20;;;9.00;99.70;;;;;;5050456;28;20439;-65
2021/12/25 13:32:37;;;;;;;26.87;14.53;;;9.00;99.70;;;;;;5050360;28;20454;-66
2021/12/25 13:35:05;;;;;;;29.73;15.77;;;9.00;99.70;;;;;;5047955;28;20490;-66
2021/12/25 13:37:32;;;;;;;28.53;15.30;;;9.00;99.70;;;;;;5048585;28;20510;-66
2021/12/25 13:39:59;;;;;;;25.63;13.00;;;9.00;99.70;;;;;;5050085;28;20443;-66
2021/12/25 13:42:25;;;;;;;27.47;13.20;;;9.00;99.70;;;;;;5048808;28;20487;-66
2021/12/25 13:44:53;;;;;;;26.60;14.47;;;9.00;99.70;;;;;;5045064;28;20471;-65
2021/12/25 13:47:23;;;;;;;26.63;13.33;;;9.00;99.70;;;;;;5049327;28;20466;-66
2021/12/25 13:49:54;;;;;;;30.27;14.80;;;9.00;99.70;;;;;;5045109;28;20451;-65
2021/12/25 13:52:30;;;;;;;27.47;13.53;;;9.00;99.70;;;;;;5048318;28;20514;-65
2021/12/25 13:55:06;;;;;;;29.20;14.53;;;9.00;99.70;;;;;;5043643;28;20848;-66
2021/12/25 13:57:35;;;;;;;35.53;14.93;;;8.90;99.70;;;;;;5048059;28;20974;-67
2021/12/25 14:00:07;;;;;;;28.33;14.10;;;8.80;99.70;;;;;;5048484;28;21013;-67
2021/12/25 14:02:34;;;;;;;15.70;7.67;;;8.80;99.70;;;;;;5049296;28;20488;-67
2021/12/25 14:05:01;;;;;;;16.90;7.93;;;8.80;99.70;;;;;;5050691;28;20467;-67
2021/12/25 14:07:30;;;;;;;13.80;6.50;;;8.80;99.70;;;;;;5050634;28;20444;-67
2021/12/25 14:09:59;;;;;;;12.83;7.23;;;8.60;99.70;;;;;;5048991;28;20456;-67
2021/12/25 14:12:27;;;;;;;17.70;7.10;;;8.60;99.70;;;;;;5054883;28;20443;-68
2021/12/25 14:14:56;;;;;;;13.30;5.80;;;8.50;99.70;;;;;;5055448;28;21011;-67
2021/12/25 14:17:23;;;;;;;11.60;5.70;;;8.40;99.70;;;;;;5055014;28;20483;-67
2021/12/25 14:19:50;;;;;;;10.70;4.90;;;8.40;99.70;;;;;;5055070;28;20538;-67
2021/12/25 14:22:20;;;;;;;9.33;4.80;;;8.40;99.70;;;;;;5055058;28;20490;-68
2021/12/25 14:24:50;;;;;;;9.40;4.60;;;8.30;99.70;;;;;;5054969;28;20495;-67
2021/12/25 14:27:21;;;;;;;9.73;4.70;;;8.30;99.70;;;;;;5054857;28;20451;-67
2021/12/25 14:29:49;;;;;;;10.13;4.67;;;8.30;99.70;;;;;;5054987;28;20459;-67
2021/12/25 14:32:24;;;;;;;10.63;4.60;;;8.30;99.70;;;;;;5054914;28;20475;-67
2021/12/25 14:34:51;;;;;;;9.67;4.33;;;8.40;99.70;;;;;;5054944;28;20528;-67
2021/12/25 14:37:18;;;;;;;9.07;4.73;;;8.40;99.70;;;;;;5054703;28;20505;-67
2021/12/25 14:39:59;;;;;;;10.17;4.30;;;8.40;99.70;;;;;;5054205;28;20967;-67
2021/12/25 14:42:36;;;;;;;12.27;4.30;;;8.40;99.70;;;;;;5054649;28;20471;-67
2021/12/25 14:45:03;;;;;;;9.67;4.80;;;8.40;99.70;;;;;;5054620;28;20463;-67
2021/12/25 14:47:30;;;;;;;9.63;5.00;;;8.40;99.70;;;;;;5054635;28;20505;-67
2021/12/25 14:49:57;;;;;;;11.20;5.70;;;8.40;99.70;;;;;;5054429;28;20481;-67
2021/12/25 14:52:23;;;;;;;11.70;5.90;;;8.40;99.70;;;;;;5054471;28;20501;-67
2021/12/25 14:54:50;;;;;;;12.93;5.30;;;8.30;99.70;;;;;;5054284;28;20475;-67
2021/12/25 14:57:22;;;;;;;10.57;5.00;;;8.30;99.70;;;;;;5054293;28;20472;-67
2021/12/25 14:59:50;;;;;;;11.30;5.90;;;8.30;99.70;;;;;;5054021;28;20451;-68
2021/12/25 15:02:20;;;;;;;14.07;5.27;;;8.30;99.70;;;;;;5054543;28;20475;-67
2021/12/25 15:04:51;;;;;;;14.50;6.90;;;8.30;99.70;;;;;;5054572;28;20495;-67
2021/12/25 15:07:18;;;;;;;11.50;5.50;;;8.30;99.70;;;;;;5054184;28;20454;-67
2021/12/25 15:09:47;;;;;;;12.30;5.57;;;8.30;99.70;;;;;;5052955;28;20956;-67
2021/12/25 15:12:16;;;;;;;15.60;6.67;;;8.30;99.70;;;;;;5054150;28;20613;-67
2021/12/25 15:14:45;;;;;;;12.73;6.40;;;8.40;99.70;;;;;;5054361;28;20463;-68
2021/12/25 15:17:16;;;;;;;16.50;7.03;;;8.30;99.70;;;;;;5054055;28;20505;-68
2021/12/25 15:19:44;;;;;;;14.53;6.97;;;8.30;99.70;;;;;;5054112;28;20505;-67
2021/12/25 15:22:13;;;;;;;12.97;6.50;;;8.30;99.70;;;;;;5052865;28;20487;-67
2021/12/25 15:24:49;;;;;;;13.20;6.90;;;8.20;99.70;;;;;;5053861;28;20463;-67
2021/12/25 15:27:23;;;;;;;14.20;6.90;;;8.20;99.70;;;;;;5054025;28;20462;-67
2021/12/25 15:29:52;;;;;;;13.90;6.80;;;8.20;99.70;;;;;;5053560;28;20443;-67
2021/12/25 15:32:20;;;;;;;15.33;7.10;;;8.20;99.70;;;;;;5054054;28;20435;-67
2021/12/25 15:34:52;;;;;;;17.17;7.40;;;8.20;99.70;;;;;;5053709;28;20475;-67
2021/12/25 15:37:22;;;;;;;15.70;7.23;;;8.20;99.70;;;;;;5053483;28;20524;-67
2021/12/25 15:39:50;;;;;;;19.20;8.90;;;8.20;99.70;;;;;;5053314;28;20451;-67
2021/12/25 15:42:18;;;;;;;20.47;9.77;;;8.20;99.70;;;;;;5053645;28;20475;-68
2021/12/25 15:44:45;;;;;;;20.40;8.83;;;8.20;99.70;;;;;;5053595;28;20467;-67
2021/12/25 15:47:11;;;;;;;23.83;10.80;;;8.20;99.70;;;;;;5053778;28;20448;-67
2021/12/25 15:49:39;;;;;;;17.97;9.47;;;8.20;99.70;;;;;;5053531;28;20440;-67
2021/12/25 15:52:07;;;;;;;24.83;11.90;;;8.20;99.70;;;;;;5053643;28;20439;-68
2021/12/25 15:54:38;;;;;;;26.37;12.43;;;8.20;99.70;;;;;;5053313;28;20549;-67
2021/12/25 15:57:07;;;;;;;27.43;12.90;;;8.20;99.70;;;;;;5053353;28;20507;-67
2021/12/25 15:59:36;;;;;;;26.53;13.27;;;8.10;99.70;;;;;;5053117;28;20444;-68
2021/12/25 16:02:05;;;;;;;33.20;15.07;;;8.20;99.70;;;;;;5053611;28;20499;-67
2021/12/25 16:04:31;;;;;;;23.40;12.00;;;8.00;99.70;;;;;;5053200;28;20468;-67
2021/12/25 16:07:00;;;;;;;27.63;12.97;;;8.00;99.70;;;;;;5053425;28;20439;-67
2021/12/25 16:09:27;;;;;;;23.30;11.77;;;7.90;99.70;;;;;;5052254;28;20851;-68
2021/12/25 16:11:55;;;;;;;25.30;13.10;;;7.90;99.70;;;;;;5053090;28;20448;-67
2021/12/25 16:14:22;;;;;;;29.30;12.00;;;7.90;99.70;;;;;;5053171;28;20464;-67
2021/12/25 16:16:49;;;;;;;27.30;12.40;;;7.80;99.70;;;;;;5053420;28;20443;-67
2021/12/25 16:19:16;;;;;;;21.47;10.80;;;7.70;99.70;;;;;;5052593;28;20439;-67
2021/12/25 16:21:44;;;;;;;24.50;11.60;;;7.70;99.70;;;;;;5053118;28;20963;-67
2021/12/25 16:24:13;;;;;;;26.83;13.20;;;7.70;99.70;;;;;;5052787;28;20447;-67
2021/12/25 16:26:40;;;;;;;22.07;12.10;;;7.70;99.70;;;;;;5052829;28;20501;-67
2021/12/25 16:29:07;;;;;;;27.07;12.50;;;7.70;99.70;;;;;;5052307;28;20512;-67
2021/12/25 16:31:37;;;;;;;24.23;11.20;;;7.70;99.70;;;;;;5052731;28;20805;-67
2021/12/25 16:34:06;;;;;;;24.50;12.10;;;7.70;99.70;;;;;;5052433;28;20975;-67
2021/12/25 16:36:33;;;;;;;28.03;11.70;;;7.50;99.70;;;;;;5053152;28;20444;-67
2021/12/25 16:39:02;;;;;;;25.77;11.60;;;7.60;99.70;;;;;;5052292;28;20474;-67
2021/12/25 16:41:30;;;;;;;26.00;11.83;;;7.60;99.70;;;;;;5052396;28;20447;-67
2021/12/25 16:43:57;;;;;;;23.33;11.40;;;7.50;99.70;;;;;;5052354;28;21003;-66
2021/12/25 16:46:24;;;;;;;23.40;10.57;;;7.50;99.70;;;;;;5052868;28;20448;-66
2021/12/25 16:48:50;;;;;;;21.63;10.10;;;7.40;99.70;;;;;;5052867;28;20447;-67
2021/12/25 16:51:17;;;;;;;22.93;10.97;;;7.40;99.70;;;;;;5053211;28;20452;-67
2021/12/25 16:53:44;;;;;;;22.23;10.87;;;7.30;99.70;;;;;;5052763;28;20446;-66
2021/12/25 16:56:11;;;;;;;48.07;12.40;;;7.30;99.70;;;;;;5052417;28;20522;-67
2021/12/25 16:58:39;;;;;;;25.70;12.13;;;7.20;99.70;;;;;;5051868;28;20503;-67
2021/12/25 17:01:06;;;;;;;58.27;12.47;;;7.00;99.70;;;;;;5052298;28;20447;-67
2021/12/25 17:03:33;;;;;;;27.60;12.40;;;7.00;99.70;;;;;;5052182;28;20479;-67
2021/12/25 17:06:00;;;;;;;30.20;11.80;;;7.00;99.70;;;;;;5052224;28;20474;-67
2021/12/25 17:08:27;;;;;;;34.33;11.50;;;6.90;99.70;;;;;;5051533;28;20473;-67
2021/12/25 17:10:54;;;;;;;22.57;10.27;;;7.00;99.70;;;;;;5051081;28;20825;-67
2021/12/25 17:13:21;;;;;;;23.40;10.37;;;6.90;99.70;;;;;;5052061;28;20872;-67
2021/12/25 17:15:51;;;;;;;24.63;11.20;;;6.90;99.70;;;;;;5051991;28;20463;-67
2021/12/25 17:18:18;;;;;;;25.40;10.83;;;6.90;99.70;;;;;;5051435;28;20447;-67
2021/12/25 17:20:49;;;;;;;27.00;11.50;;;6.70;99.70;;;;;;5052020;28;20452;-67
2021/12/25 17:23:16;;;;;;;25.10;10.67;;;6.70;99.70;;;;;;5052049;28;20483;-67
2021/12/25 17:25:43;;;;;;;75.03;22.60;;;6.70;99.70;;;;;;5051895;28;20834;-67
2021/12/25 17:28:10;;;;;;;31.87;12.37;;;6.60;99.70;;;;;;5051594;28;20806;-67
2021/12/25 17:30:42;;;;;;;24.33;11.20;;;6.60;99.70;;;;;;5051990;28;20451;-67
2021/12/25 17:33:10;;;;;;;34.77;12.40;;;6.70;99.70;;;;;;5052220;28;20475;-67
2021/12/25 17:35:37;;;;;;;39.33;17.10;;;6.70;99.70;;;;;;5051649;28;20467;-67
2021/12/25 17:38:03;;;;;;;31.47;14.20;;;6.60;99.70;;;;;;5051614;28;20454;-67
2021/12/25 17:40:33;;;;;;;26.47;11.90;;;6.60;99.70;;;;;;5052352;28;20730;-67
2021/12/25 17:43:00;;;;;;;30.97;14.00;;;6.40;99.70;;;;;;5051998;28;20853;-67
2021/12/25 17:45:27;;;;;;;26.00;12.83;;;6.70;99.70;;;;;;5052613;28;20460;-67
2021/12/25 17:47:56;;;;;;;29.77;13.00;;;6.60;99.70;;;;;;5055855;28;20466;-67
2021/12/25 17:50:26;;;;;;;27.47;12.80;;;6.60;99.70;;;;;;5055957;28;20800;-67
2021/12/25 17:52:53;;;;;;;25.70;12.20;;;6.60;99.70;;;;;;5056184;28;20440;-67
2021/12/25 17:55:21;;;;;;;27.13;11.87;;;6.40;99.70;;;;;;5055846;28;20475;-67
2021/12/25 17:57:48;;;;;;;27.40;12.10;;;6.40;99.70;;;;;;5055384;28;20454;-66
2021/12/25 18:00:18;;;;;;;25.73;11.50;;;6.40;99.70;;;;;;5055954;28;20450;-68